createdAt,value
2018-08-04T00:00:56.924Z,24.33
2018-08-04T00:01:56.820Z,24.30
2018-08-04T00:02:56.729Z,24.27
2018-08-04T00:03:56.644Z,24.34
2018-08-04T00:04:56.583Z,24.26
2018-08-04T00:05:56.473Z,24.16
2018-08-04T00:06:56.387Z,24.12
2018-08-04T00:07:56.301Z,24.14
2018-08-04T00:08:56.219Z,24.18
2018-08-04T00:09:56.134Z,24.18
2018-08-04T00:10:56.069Z,24.14
2018-08-04T00:11:55.975Z,24.21
2018-08-04T00:12:55.875Z,24.18
2018-08-04T00:13:55.788Z,24.15
2018-08-04T00:14:55.708Z,24.18
2018-08-04T00:15:55.642Z,24.21
2018-08-04T00:16:55.534Z,24.11
2018-08-04T00:17:55.445Z,24.00
2018-08-04T00:18:55.365Z,24.02
2018-08-04T00:19:55.278Z,24.00
2018-08-04T00:20:55.214Z,24.06
2018-08-04T00:21:55.107Z,24.06
2018-08-04T00:22:55.023Z,24.12
2018-08-04T00:23:54.938Z,24.06
2018-08-04T00:24:54.852Z,24.11
2018-08-04T00:25:54.788Z,24.06
2018-08-04T00:26:54.677Z,23.96
2018-08-04T00:27:54.592Z,23.97
2018-08-04T00:28:54.506Z,24.00
2018-08-04T00:29:54.423Z,24.00
2018-08-04T00:30:54.356Z,23.86
2018-08-04T00:31:54.252Z,23.77
2018-08-04T00:32:54.166Z,23.75
2018-08-04T00:33:54.081Z,23.68
2018-08-04T00:34:53.996Z,23.64
2018-08-04T00:35:53.933Z,23.59
2018-08-04T00:36:53.822Z,23.59
2018-08-04T00:37:53.737Z,23.49
2018-08-04T00:38:53.650Z,23.38
2018-08-04T00:39:53.567Z,23.22
2018-08-04T00:40:53.504Z,23.19
2018-08-04T00:41:53.395Z,23.04
2018-08-04T00:42:53.311Z,22.96
2018-08-04T00:43:53.227Z,22.74
2018-08-04T00:44:53.149Z,22.51
2018-08-04T00:45:53.073Z,22.31
2018-08-04T00:46:53.059Z,22.27
2018-08-04T00:47:52.881Z,22.17
2018-08-04T00:48:52.796Z,22.14
2018-08-04T00:49:52.710Z,22.17
2018-08-04T00:50:52.648Z,22.12
2018-08-04T00:51:52.540Z,22.14
2018-08-04T00:52:52.454Z,22.15
2018-08-04T00:53:52.460Z,22.19
2018-08-04T00:54:52.283Z,22.21
2018-08-04T00:55:52.220Z,22.24
2018-08-04T00:56:52.111Z,22.36
2018-08-04T00:57:52.023Z,22.31
2018-08-04T00:58:51.936Z,22.42
2018-08-04T00:59:51.855Z,22.44
2018-08-04T01:00:51.866Z,22.54
2018-08-04T01:01:51.706Z,22.49
2018-08-04T01:02:51.595Z,22.48
2018-08-04T01:03:51.512Z,22.49
2018-08-04T01:04:51.424Z,22.27
2018-08-04T01:05:51.336Z,22.06
2018-08-04T01:06:51.274Z,22.12
2018-08-04T01:07:51.282Z,21.90
2018-08-04T01:08:51.081Z,21.93
2018-08-04T01:09:50.998Z,21.75
2018-08-04T01:10:50.908Z,21.67
2018-08-04T01:11:50.842Z,21.49
2018-08-04T01:12:50.739Z,21.36
2018-08-04T01:13:50.651Z,21.19
2018-08-04T01:14:50.660Z,20.97
2018-08-04T01:15:50.480Z,20.93
2018-08-04T01:16:50.414Z,20.79
2018-08-04T01:17:50.307Z,20.66
2018-08-04T01:18:50.227Z,20.53
2018-08-04T01:19:50.137Z,20.58
2018-08-04T01:20:50.047Z,20.41
2018-08-04T01:21:50.078Z,20.44
2018-08-04T01:22:49.874Z,20.42
2018-08-04T01:23:49.788Z,20.33
2018-08-04T01:24:49.703Z,20.38
2018-08-04T01:25:49.617Z,20.38
2018-08-04T01:26:49.558Z,20.34
2018-08-04T01:27:49.443Z,20.53
2018-08-04T01:28:49.469Z,20.53
2018-08-04T01:29:49.269Z,20.44
2018-08-04T01:30:49.194Z,20.42
2018-08-04T01:31:49.118Z,20.44
2018-08-04T01:32:49.013Z,20.51
2018-08-04T01:33:48.923Z,20.48
2018-08-04T01:34:48.837Z,20.56
2018-08-04T01:35:48.845Z,20.51
2018-08-04T01:36:48.686Z,20.60
2018-08-04T01:37:48.579Z,20.61
2018-08-04T01:38:48.493Z,20.60
2018-08-04T01:39:48.422Z,20.60
2018-08-04T01:40:48.318Z,20.58
2018-08-04T01:41:48.236Z,20.56
2018-08-04T01:42:48.259Z,20.57
2018-08-04T01:43:48.058Z,20.57
2018-08-04T01:44:47.970Z,20.56
2018-08-04T01:45:47.884Z,20.51
2018-08-04T01:46:47.805Z,20.53
2018-08-04T01:47:47.735Z,20.46
2018-08-04T01:48:47.626Z,20.42
2018-08-04T01:49:47.635Z,20.46
2018-08-04T01:50:47.453Z,20.35
2018-08-04T01:51:47.364Z,20.38
2018-08-04T01:52:47.299Z,20.22
2018-08-04T01:53:47.280Z,20.25
2018-08-04T01:54:47.102Z,20.15
2018-08-04T01:55:47.018Z,20.12
2018-08-04T01:56:47.030Z,20.02
2018-08-04T01:57:46.866Z,20.12
2018-08-04T01:58:46.760Z,20.00
2018-08-04T01:59:46.668Z,20.02
2018-08-04T02:00:46.584Z,20.07
2018-08-04T02:01:46.503Z,19.92
2018-08-04T02:02:46.429Z,19.89
2018-08-04T02:03:46.418Z,20.04
2018-08-04T02:04:46.235Z,20.12
2018-08-04T02:05:46.149Z,20.12
2018-08-04T02:06:46.060Z,20.22
2018-08-04T02:07:45.997Z,20.27
2018-08-04T02:08:45.888Z,20.53
2018-08-04T02:09:45.799Z,21.06
2018-08-04T02:10:45.805Z,21.55
2018-08-04T02:11:45.626Z,21.73
2018-08-04T02:12:45.565Z,21.82
2018-08-04T02:13:45.455Z,21.94
2018-08-04T02:14:45.364Z,21.98
2018-08-04T02:15:45.283Z,22.12
2018-08-04T02:16:45.198Z,22.23
2018-08-04T02:17:45.129Z,21.96
2018-08-04T02:18:45.019Z,21.85
2018-08-04T02:19:44.932Z,21.55
2018-08-04T02:20:44.841Z,21.28
2018-08-04T02:21:44.755Z,20.96
2018-08-04T02:22:44.696Z,20.75
2018-08-04T02:23:44.585Z,20.56
2018-08-04T02:24:44.497Z,20.53
2018-08-04T02:25:44.412Z,20.38
2018-08-04T02:26:44.324Z,20.40
2018-08-04T02:27:44.237Z,20.27
2018-08-04T02:28:44.172Z,20.30
2018-08-04T02:29:44.060Z,20.25
2018-08-04T02:30:43.976Z,20.22
2018-08-04T02:31:43.891Z,20.10
2018-08-04T02:32:43.798Z,20.00
2018-08-04T02:33:43.733Z,19.95
2018-08-04T02:34:43.627Z,19.85
2018-08-04T02:35:43.542Z,19.83
2018-08-04T02:36:43.455Z,19.68
2018-08-04T02:37:43.364Z,19.62
2018-08-04T02:38:43.298Z,19.57
2018-08-04T02:39:43.191Z,19.52
2018-08-04T02:40:43.101Z,19.42
2018-08-04T02:41:43.016Z,19.30
2018-08-04T02:42:42.929Z,19.23
2018-08-04T02:43:42.864Z,19.15
2018-08-04T02:44:42.756Z,19.16
2018-08-04T02:45:42.673Z,19.07
2018-08-04T02:46:42.580Z,19.07
2018-08-04T02:47:42.495Z,19.07
2018-08-04T02:48:42.427Z,19.12
2018-08-04T02:49:42.324Z,19.07
2018-08-04T02:50:42.235Z,19.09
2018-08-04T02:51:42.144Z,19.07
2018-08-04T02:52:42.056Z,19.24
2018-08-04T02:53:41.992Z,19.30
2018-08-04T02:54:41.883Z,19.35
2018-08-04T02:55:41.797Z,19.42
2018-08-04T02:56:41.711Z,19.39
2018-08-04T02:57:41.620Z,19.49
2018-08-04T02:58:41.555Z,19.60
2018-08-04T02:59:41.446Z,19.67
2018-08-04T03:00:41.360Z,19.76
2018-08-04T03:01:41.271Z,19.85
2018-08-04T03:02:41.186Z,19.86
2018-08-04T03:03:41.120Z,19.95
2018-08-04T03:04:41.011Z,19.92
2018-08-04T03:05:40.925Z,20.01
2018-08-04T03:06:40.843Z,19.82
2018-08-04T03:07:40.749Z,19.57
2018-08-04T03:08:40.735Z,19.47
2018-08-04T03:09:40.574Z,19.28
2018-08-04T03:10:40.486Z,19.16
2018-08-04T03:11:40.398Z,19.07
2018-08-04T03:12:40.311Z,19.17
2018-08-04T03:13:40.224Z,19.21
2018-08-04T03:14:40.159Z,19.23
2018-08-04T03:15:40.046Z,19.13
2018-08-04T03:16:39.962Z,19.07
2018-08-04T03:17:39.897Z,19.16
2018-08-04T03:18:39.787Z,19.21
2018-08-04T03:19:39.718Z,19.28
2018-08-04T03:20:39.615Z,19.31
2018-08-04T03:21:39.524Z,19.32
2018-08-04T03:22:39.438Z,19.34
2018-08-04T03:23:39.351Z,19.27
2018-08-04T03:24:39.286Z,19.35
2018-08-04T03:25:39.174Z,19.32
2018-08-04T03:26:39.086Z,19.42
2018-08-04T03:27:38.997Z,19.42
2018-08-04T03:28:38.911Z,19.43
2018-08-04T03:29:38.850Z,19.32
2018-08-04T03:30:38.737Z,19.28
2018-08-04T03:31:38.649Z,19.32
2018-08-04T03:32:38.559Z,19.30
2018-08-04T03:33:38.473Z,19.31
2018-08-04T03:34:38.407Z,19.28
2018-08-04T03:35:38.302Z,19.27
2018-08-04T03:36:38.213Z,19.31
2018-08-04T03:37:38.124Z,19.38
2018-08-04T03:38:38.034Z,19.38
2018-08-04T03:39:37.973Z,19.45
2018-08-04T03:40:37.860Z,19.47
2018-08-04T03:41:37.771Z,19.47
2018-08-04T03:42:37.688Z,19.52
2018-08-04T03:43:37.602Z,19.52
2018-08-04T03:44:37.532Z,19.46
2018-08-04T03:45:37.422Z,19.46
2018-08-04T03:46:37.336Z,19.49
2018-08-04T03:47:37.248Z,19.45
2018-08-04T03:48:37.257Z,19.65
2018-08-04T03:49:37.097Z,19.61
2018-08-04T03:50:36.984Z,19.46
2018-08-04T03:51:36.901Z,19.49
2018-08-04T03:52:36.812Z,19.35
2018-08-04T03:53:36.720Z,19.38
2018-08-04T03:54:36.643Z,19.45
2018-08-04T03:55:36.669Z,19.30
2018-08-04T03:56:36.463Z,19.35
2018-08-04T03:57:36.375Z,19.38
2018-08-04T03:58:36.290Z,19.38
2018-08-04T03:59:36.206Z,19.46
2018-08-04T04:00:36.132Z,19.47
2018-08-04T04:01:36.024Z,19.58
2018-08-04T04:02:36.025Z,19.50
2018-08-04T04:03:35.851Z,19.58
2018-08-04T04:04:35.761Z,19.55
2018-08-04T04:05:35.694Z,19.57
2018-08-04T04:06:35.606Z,19.72
2018-08-04T04:07:35.499Z,19.72
2018-08-04T04:08:35.412Z,19.72
2018-08-04T04:09:35.417Z,19.83
2018-08-04T04:10:35.256Z,19.83
2018-08-04T04:11:35.149Z,19.83
2018-08-04T04:12:35.063Z,19.92
2018-08-04T04:13:34.974Z,19.75
2018-08-04T04:14:34.885Z,19.82
2018-08-04T04:15:34.821Z,19.87
2018-08-04T04:16:34.808Z,19.87
2018-08-04T04:17:34.621Z,19.83
2018-08-04T04:18:34.538Z,19.83
2018-08-04T04:19:34.449Z,19.86
2018-08-04T04:20:34.388Z,19.97
2018-08-04T04:21:34.274Z,19.90
2018-08-04T04:22:34.190Z,19.97
2018-08-04T04:23:34.200Z,20.01
2018-08-04T04:24:34.013Z,20.19
2018-08-04T04:25:33.954Z,20.37
2018-08-04T04:26:33.840Z,20.46
2018-08-04T04:27:33.753Z,20.38
2018-08-04T04:28:33.668Z,20.44
2018-08-04T04:29:33.577Z,20.50
2018-08-04T04:30:33.606Z,20.58
2018-08-04T04:31:33.404Z,20.72
2018-08-04T04:32:33.315Z,20.73
2018-08-04T04:33:33.230Z,20.79
2018-08-04T04:34:33.141Z,20.91
2018-08-04T04:35:33.086Z,20.93
2018-08-04T04:36:32.969Z,21.11
2018-08-04T04:37:32.976Z,21.22
2018-08-04T04:38:32.793Z,21.36
2018-08-04T04:39:32.709Z,21.38
2018-08-04T04:40:32.624Z,21.42
2018-08-04T04:41:32.599Z,21.49
2018-08-04T04:42:32.445Z,21.52
2018-08-04T04:43:32.386Z,21.55
2018-08-04T04:44:32.364Z,21.53
2018-08-04T04:45:32.187Z,21.59
2018-08-04T04:46:32.124Z,21.61
2018-08-04T04:47:32.016Z,21.67
2018-08-04T04:48:31.942Z,21.82
2018-08-04T04:49:31.840Z,21.93
2018-08-04T04:50:31.754Z,21.93
2018-08-04T04:51:31.789Z,21.99
2018-08-04T04:52:31.582Z,22.08
2018-08-04T04:53:31.495Z,22.11
2018-08-04T04:54:31.415Z,22.24
2018-08-04T04:55:31.397Z,22.29
2018-08-04T04:56:31.267Z,22.46
2018-08-04T04:57:31.247Z,22.45
2018-08-04T04:58:31.067Z,22.59
2018-08-04T04:59:30.984Z,22.67
2018-08-04T05:00:30.895Z,22.88
2018-08-04T05:01:30.831Z,22.94
2018-08-04T05:02:30.727Z,23.01
2018-08-04T05:03:30.641Z,23.06
2018-08-04T05:04:30.555Z,23.09
2018-08-04T05:05:30.469Z,23.25
2018-08-04T05:06:30.413Z,23.19
2018-08-04T05:07:30.298Z,23.31
2018-08-04T05:08:30.210Z,23.37
2018-08-04T05:09:30.130Z,23.53
2018-08-04T05:10:30.041Z,23.68
2018-08-04T05:11:29.981Z,23.67
2018-08-04T05:12:29.870Z,23.67
2018-08-04T05:13:29.790Z,23.68
2018-08-04T05:14:29.704Z,23.64
2018-08-04T05:15:29.617Z,23.62
2018-08-04T05:16:29.553Z,23.57
2018-08-04T05:17:29.449Z,23.53
2018-08-04T05:18:29.362Z,23.53
2018-08-04T05:19:29.279Z,23.59
2018-08-04T05:20:29.193Z,23.64
2018-08-04T05:21:29.140Z,23.63
2018-08-04T05:22:29.025Z,23.67
2018-08-04T05:23:28.944Z,23.72
2018-08-04T05:24:28.854Z,23.89
2018-08-04T05:25:28.772Z,23.89
2018-08-04T05:26:28.690Z,23.78
2018-08-04T05:27:28.628Z,23.82
2018-08-04T05:28:28.519Z,23.82
2018-08-04T05:29:28.432Z,23.78
2018-08-04T05:30:28.349Z,23.74
2018-08-04T05:31:28.271Z,23.78
2018-08-04T05:32:28.202Z,23.68
2018-08-04T05:33:28.092Z,23.68
2018-08-04T05:34:28.015Z,23.67
2018-08-04T05:35:27.928Z,23.67
2018-08-04T05:36:27.846Z,23.62
2018-08-04T05:37:27.841Z,23.64
2018-08-04T05:38:27.703Z,23.60
2018-08-04T05:39:27.590Z,23.53
2018-08-04T05:40:27.513Z,23.59
2018-08-04T05:41:27.421Z,23.63
2018-08-04T05:42:27.358Z,23.53
2018-08-04T05:43:27.282Z,23.45
2018-08-04T05:44:27.180Z,23.49
2018-08-04T05:45:27.089Z,23.44
2018-08-04T05:46:27.000Z,23.41
2018-08-04T05:47:26.937Z,23.31
2018-08-04T05:48:26.830Z,23.34
2018-08-04T05:49:26.751Z,23.25
2018-08-04T05:50:26.662Z,23.22
2018-08-04T05:51:26.580Z,23.18
2018-08-04T05:52:26.517Z,23.25
2018-08-04T05:53:26.415Z,23.19
2018-08-04T05:54:26.329Z,23.09
2018-08-04T05:55:26.247Z,23.11
2018-08-04T05:56:26.161Z,23.07
2018-08-04T05:57:26.097Z,23.11
2018-08-04T05:58:25.992Z,23.11
2018-08-04T05:59:25.917Z,23.11
2018-08-04T06:00:25.822Z,23.15
2018-08-04T06:01:25.741Z,23.07
2018-08-04T06:02:25.685Z,23.04
2018-08-04T06:03:25.638Z,23.07
2018-08-04T06:04:25.487Z,23.01
2018-08-04T06:05:25.402Z,23.09
2018-08-04T06:06:25.316Z,23.14
2018-08-04T06:07:25.251Z,23.03
2018-08-04T06:08:25.146Z,23.12
2018-08-04T06:09:25.058Z,23.01
2018-08-04T06:10:24.976Z,23.03
2018-08-04T06:11:24.895Z,22.96
2018-08-04T06:12:24.813Z,22.96
2018-08-04T06:13:24.745Z,22.89
2018-08-04T06:14:24.639Z,22.84
2018-08-04T06:15:24.555Z,22.81
2018-08-04T06:16:24.472Z,22.84
2018-08-04T06:17:24.387Z,22.89
2018-08-04T06:18:24.327Z,22.86
2018-08-04T06:19:24.223Z,22.79
2018-08-04T06:20:24.134Z,22.79
2018-08-04T06:21:24.140Z,22.89
2018-08-04T06:22:23.962Z,22.86
2018-08-04T06:23:23.900Z,22.79
2018-08-04T06:24:23.789Z,22.74
2018-08-04T06:25:23.710Z,22.69
2018-08-04T06:26:23.625Z,22.69
2018-08-04T06:27:23.538Z,22.69
2018-08-04T06:28:23.573Z,22.63
2018-08-04T06:29:23.370Z,22.64
2018-08-04T06:30:23.340Z,22.60
2018-08-04T06:31:23.197Z,22.64
2018-08-04T06:32:23.117Z,22.59
2018-08-04T06:33:23.052Z,22.69
2018-08-04T06:34:22.945Z,22.69
2018-08-04T06:35:22.971Z,22.69
2018-08-04T06:36:22.773Z,22.72
2018-08-04T06:37:22.693Z,22.76
2018-08-04T06:38:22.626Z,22.76
2018-08-04T06:39:22.520Z,22.88
2018-08-04T06:40:22.436Z,22.81
2018-08-04T06:41:22.351Z,22.88
2018-08-04T06:42:22.362Z,22.88
2018-08-04T06:43:22.205Z,22.88
2018-08-04T06:44:22.097Z,22.93
2018-08-04T06:45:22.011Z,23.00
2018-08-04T06:46:21.929Z,22.97
2018-08-04T06:47:21.841Z,22.97
2018-08-04T06:48:21.785Z,23.04
2018-08-04T06:49:21.765Z,23.04
2018-08-04T06:50:21.590Z,22.97
2018-08-04T06:51:21.503Z,22.99
2018-08-04T06:52:21.419Z,23.04
2018-08-04T06:53:21.355Z,23.04
2018-08-04T06:54:21.250Z,23.00
2018-08-04T06:55:21.165Z,23.01
2018-08-04T06:56:21.172Z,22.91
2018-08-04T06:57:20.993Z,23.06
2018-08-04T06:58:20.964Z,22.91
2018-08-04T06:59:20.827Z,23.01
2018-08-04T07:00:20.745Z,22.91
2018-08-04T07:01:20.660Z,22.93
2018-08-04T07:02:20.572Z,22.81
2018-08-04T07:03:20.603Z,22.78
2018-08-04T07:04:20.403Z,22.85
2018-08-04T07:05:20.316Z,22.72
2018-08-04T07:06:20.229Z,22.64
2018-08-04T07:07:20.147Z,22.46
2018-08-04T07:08:20.062Z,22.39
2018-08-04T07:09:19.996Z,22.45
2018-08-04T07:10:19.990Z,22.36
2018-08-04T07:11:19.807Z,22.39
2018-08-04T07:12:19.724Z,22.30
2018-08-04T07:13:19.639Z,22.30
2018-08-04T07:14:19.573Z,22.11
2018-08-04T07:15:19.469Z,22.21
2018-08-04T07:16:19.383Z,22.15
2018-08-04T07:17:19.389Z,22.19
2018-08-04T07:18:19.214Z,22.14
2018-08-04T07:19:19.152Z,22.11
2018-08-04T07:20:19.044Z,22.06
2018-08-04T07:21:18.958Z,22.11
2018-08-04T07:22:18.873Z,21.93
2018-08-04T07:23:18.786Z,21.91
2018-08-04T07:24:18.820Z,21.82
2018-08-04T07:25:18.617Z,21.70
2018-08-04T07:26:18.534Z,21.56
2018-08-04T07:27:18.446Z,21.37
2018-08-04T07:28:18.361Z,21.05
2018-08-04T07:29:18.387Z,20.93
2018-08-04T07:30:18.190Z,20.69
2018-08-04T07:31:18.199Z,20.66
2018-08-04T07:32:18.020Z,20.54
2018-08-04T07:33:17.929Z,20.38
2018-08-04T07:34:17.897Z,20.46
2018-08-04T07:35:17.761Z,20.37
2018-08-04T07:36:17.672Z,20.38
2018-08-04T07:37:17.589Z,20.35
2018-08-04T07:38:17.594Z,20.35
2018-08-04T07:39:17.437Z,20.35
2018-08-04T07:40:17.349Z,20.27
2018-08-04T07:41:17.245Z,20.26
2018-08-04T07:42:17.156Z,20.26
2018-08-04T07:43:17.066Z,20.17
2018-08-04T07:44:17.004Z,20.13
2018-08-04T07:45:16.897Z,20.16
2018-08-04T07:46:16.809Z,20.12
2018-08-04T07:47:16.723Z,20.16
2018-08-04T07:48:16.636Z,20.25
2018-08-04T07:49:16.549Z,20.23
2018-08-04T07:50:16.486Z,20.25
2018-08-04T07:51:16.376Z,20.23
2018-08-04T07:52:16.288Z,20.22
2018-08-04T07:53:16.202Z,20.12
2018-08-04T07:54:16.114Z,20.19
2018-08-04T07:55:16.053Z,20.19
2018-08-04T07:56:15.938Z,20.25
2018-08-04T07:57:15.853Z,20.22
2018-08-04T07:58:15.765Z,20.34
2018-08-04T07:59:15.680Z,20.31
2018-08-04T08:00:15.614Z,20.40
2018-08-04T08:01:15.508Z,20.34
2018-08-04T08:02:15.416Z,20.42
2018-08-04T08:03:15.343Z,20.42
2018-08-04T08:04:15.244Z,20.42
2018-08-04T08:05:15.178Z,20.48
2018-08-04T08:06:15.068Z,20.56
2018-08-04T08:07:14.981Z,20.61
2018-08-04T08:08:14.894Z,20.56
2018-08-04T08:09:14.806Z,20.68
2018-08-04T08:10:14.748Z,20.71
2018-08-04T08:11:14.769Z,20.88
2018-08-04T08:12:14.548Z,20.93
2018-08-04T08:13:14.460Z,21.03
2018-08-04T08:14:14.372Z,21.09
2018-08-04T08:15:14.308Z,21.15
2018-08-04T08:16:14.197Z,21.36
2018-08-04T08:17:14.110Z,21.53
2018-08-04T08:18:14.025Z,21.67
2018-08-04T08:19:13.938Z,21.73
2018-08-04T08:20:13.874Z,21.75
2018-08-04T08:21:13.765Z,21.71
2018-08-04T08:22:13.678Z,21.85
2018-08-04T08:23:13.651Z,21.91
2018-08-04T08:24:13.501Z,21.91
2018-08-04T08:25:13.439Z,21.96
2018-08-04T08:26:13.327Z,21.96
2018-08-04T08:27:13.246Z,22.05
2018-08-04T08:28:13.156Z,22.09
2018-08-04T08:29:13.068Z,22.15
2018-08-04T08:30:13.006Z,22.15
2018-08-04T08:31:12.923Z,22.19
2018-08-04T08:32:12.810Z,22.14
2018-08-04T08:33:12.743Z,22.23
2018-08-04T08:34:12.637Z,22.11
2018-08-04T08:35:12.558Z,22.20
2018-08-04T08:36:12.496Z,22.31
2018-08-04T08:37:12.379Z,22.31
2018-08-04T08:38:12.294Z,22.45
2018-08-04T08:39:12.207Z,22.41
2018-08-04T08:40:12.124Z,22.59
2018-08-04T08:41:12.058Z,22.61
2018-08-04T08:42:11.948Z,22.59
2018-08-04T08:43:11.863Z,22.64
2018-08-04T08:44:11.777Z,22.66
2018-08-04T08:45:11.688Z,22.63
2018-08-04T08:46:11.627Z,22.70
2018-08-04T08:47:11.531Z,22.66
2018-08-04T08:48:11.433Z,22.72
2018-08-04T08:49:11.348Z,22.72
2018-08-04T08:50:11.260Z,22.81
2018-08-04T08:51:11.199Z,22.93
2018-08-04T08:52:11.089Z,22.97
2018-08-04T08:53:11.034Z,22.99
2018-08-04T08:54:11.053Z,23.14
2018-08-04T08:55:10.834Z,23.09
2018-08-04T08:56:10.769Z,23.16
2018-08-04T08:57:10.661Z,23.29
2018-08-04T08:58:10.578Z,23.38
2018-08-04T08:59:10.490Z,23.45
2018-08-04T09:00:10.402Z,23.59
2018-08-04T09:01:10.338Z,23.67
2018-08-04T09:02:10.234Z,23.74
2018-08-04T09:03:10.148Z,23.90
2018-08-04T09:04:10.066Z,24.04
2018-08-04T09:05:09.980Z,24.24
2018-08-04T09:06:09.914Z,24.41
2018-08-04T09:07:09.811Z,24.52
2018-08-04T09:08:09.741Z,24.61
2018-08-04T09:09:09.637Z,24.75
2018-08-04T09:10:10.382Z,24.89
2018-08-04T09:11:10.383Z,24.90
2018-08-04T09:12:09.382Z,24.92
2018-08-04T09:13:09.297Z,25.05
2018-08-04T09:14:09.213Z,25.11
2018-08-04T09:15:09.132Z,25.24
2018-08-04T09:16:09.075Z,25.35
2018-08-04T09:17:08.960Z,25.39
2018-08-04T09:18:08.877Z,25.54
2018-08-04T09:19:08.804Z,25.66
2018-08-04T09:20:08.708Z,25.67
2018-08-04T09:21:08.627Z,25.66
2018-08-04T09:22:08.564Z,25.71
2018-08-04T09:23:08.522Z,25.82
2018-08-04T09:24:08.373Z,25.96
2018-08-04T09:25:08.291Z,25.98
2018-08-04T09:26:08.210Z,26.21
2018-08-04T09:27:08.144Z,26.49
2018-08-04T09:28:08.041Z,26.60
2018-08-04T09:29:07.960Z,26.68
2018-08-04T09:30:07.900Z,26.75
2018-08-04T09:31:07.791Z,26.86
2018-08-04T09:32:07.732Z,26.79
2018-08-04T09:33:07.624Z,26.98
2018-08-04T09:34:07.543Z,27.08
2018-08-04T09:35:07.457Z,27.33
2018-08-04T09:36:07.375Z,27.68
2018-08-04T09:37:07.316Z,27.90
2018-08-04T09:38:07.212Z,28.30
2018-08-04T09:39:07.140Z,28.30
2018-08-04T09:40:07.054Z,28.11
2018-08-04T09:41:06.969Z,28.42
2018-08-04T09:42:06.912Z,28.51
2018-08-04T09:43:06.802Z,28.45
2018-08-04T09:44:06.728Z,28.25
2018-08-04T09:45:06.646Z,28.13
2018-08-04T09:46:06.557Z,28.09
2018-08-04T09:47:06.499Z,28.23
2018-08-04T09:48:06.396Z,28.30
2018-08-04T09:49:06.317Z,28.45
2018-08-04T09:50:06.233Z,28.50
2018-08-04T09:51:06.158Z,28.72
2018-08-04T09:52:06.097Z,28.70
2018-08-04T09:53:05.997Z,29.03
2018-08-04T09:54:05.926Z,29.45
2018-08-04T09:55:05.833Z,29.82
2018-08-04T09:56:05.754Z,30.42
2018-08-04T09:57:05.694Z,30.73
2018-08-04T09:58:05.688Z,30.94
2018-08-04T09:59:05.515Z,31.10
2018-08-04T10:00:05.435Z,31.65
2018-08-04T10:01:05.350Z,31.92
2018-08-04T10:02:05.298Z,31.90
2018-08-04T10:03:05.194Z,32.24
2018-08-04T10:04:05.114Z,32.28
2018-08-04T10:05:05.165Z,32.68
2018-08-04T10:06:04.958Z,32.71
2018-08-04T10:07:04.884Z,32.93
2018-08-04T10:08:04.823Z,33.40
2018-08-04T10:09:04.721Z,33.15
2018-08-04T10:10:04.647Z,33.18
2018-08-04T10:11:04.569Z,33.21
2018-08-04T10:12:04.594Z,32.98
2018-08-04T10:13:04.434Z,32.68
2018-08-04T10:14:04.334Z,32.73
2018-08-04T10:15:04.259Z,32.62
2018-08-04T10:16:04.179Z,32.39
2018-08-04T10:17:04.107Z,32.85
2018-08-04T10:18:04.048Z,33.14
2018-08-04T10:19:03.955Z,32.84
2018-08-04T10:20:03.875Z,32.78
2018-08-04T10:21:03.801Z,31.92
2018-08-04T10:22:03.723Z,31.94
2018-08-04T10:23:03.667Z,31.85
2018-08-04T10:24:03.571Z,31.97
2018-08-04T10:25:03.509Z,32.10
2018-08-04T10:26:03.453Z,32.41
2018-08-04T10:27:03.340Z,32.56
2018-08-04T10:28:03.289Z,32.78
2018-08-04T10:29:03.191Z,33.05
2018-08-04T10:30:03.127Z,33.29
2018-08-04T10:31:03.036Z,32.84
2018-08-04T10:32:03.018Z,32.76
2018-08-04T10:33:02.906Z,33.26
2018-08-04T10:34:02.809Z,33.33
2018-08-04T10:35:02.737Z,33.40
2018-08-04T10:36:02.656Z,33.68
2018-08-04T10:37:02.581Z,33.74
2018-08-04T10:38:02.533Z,33.78
2018-08-04T10:39:02.429Z,33.62
2018-08-04T10:40:02.351Z,33.93
2018-08-04T10:41:02.280Z,33.45
2018-08-04T10:42:02.216Z,33.86
2018-08-04T10:43:02.150Z,34.00
2018-08-04T10:44:02.079Z,34.21
2018-08-04T10:45:01.979Z,34.40
2018-08-04T10:46:01.901Z,34.24
2018-08-04T10:47:01.826Z,34.40
2018-08-04T10:48:01.775Z,34.30
2018-08-04T10:49:01.678Z,34.18
2018-08-04T10:50:01.602Z,33.81
2018-08-04T10:51:01.529Z,33.72
2018-08-04T10:52:01.454Z,33.70
2018-08-04T10:53:01.399Z,33.77
2018-08-04T10:54:01.303Z,33.60
2018-08-04T10:55:01.241Z,33.78
2018-08-04T10:56:01.158Z,33.93
2018-08-04T10:57:01.115Z,33.44
2018-08-04T10:58:01.005Z,33.65
2018-08-04T10:59:00.950Z,33.56
2018-08-04T11:00:00.858Z,33.71
2018-08-04T11:01:00.781Z,34.14
2018-08-04T11:02:00.713Z,34.30
2018-08-04T11:03:00.631Z,34.46
2018-08-04T11:04:00.580Z,34.48
2018-08-04T11:05:00.480Z,34.50
2018-08-04T11:06:00.407Z,34.75
2018-08-04T11:07:00.333Z,34.71
2018-08-04T11:08:00.258Z,34.61
2018-08-04T11:09:00.203Z,34.73
2018-08-04T11:10:00.109Z,34.91
2018-08-04T11:11:00.035Z,35.07
2018-08-04T11:11:59.961Z,35.39
2018-08-04T11:12:59.885Z,35.20
2018-08-04T11:13:59.831Z,35.46
2018-08-04T11:14:59.736Z,35.28
2018-08-04T11:15:59.662Z,35.61
2018-08-04T11:16:59.587Z,35.32
2018-08-04T11:17:59.538Z,35.27
2018-08-04T11:18:59.467Z,35.71
2018-08-04T11:19:59.365Z,35.42
2018-08-04T11:20:59.290Z,35.24
2018-08-04T11:21:59.216Z,35.58
2018-08-04T11:22:59.143Z,35.03
2018-08-04T11:23:59.096Z,34.46
2018-08-04T11:24:59.003Z,34.24
2018-08-04T11:25:58.920Z,34.28
2018-08-04T11:26:58.853Z,34.37
2018-08-04T11:27:58.773Z,34.31
2018-08-04T11:28:58.721Z,34.11
2018-08-04T11:29:58.625Z,33.81
2018-08-04T11:30:58.622Z,33.65
2018-08-04T11:31:58.493Z,33.92
2018-08-04T11:32:58.402Z,33.94
2018-08-04T11:33:58.332Z,34.14
2018-08-04T11:34:58.276Z,34.40
2018-08-04T11:35:58.180Z,34.36
2018-08-04T11:36:58.108Z,34.58
2018-08-04T11:37:58.032Z,34.88
2018-08-04T11:38:57.961Z,34.55
2018-08-04T11:39:57.906Z,34.26
2018-08-04T11:40:57.810Z,34.28
2018-08-04T11:41:57.738Z,34.26
2018-08-04T11:42:57.661Z,34.26
2018-08-04T11:43:57.587Z,34.38
2018-08-04T11:44:57.553Z,34.36
2018-08-04T11:45:57.438Z,34.67
2018-08-04T11:46:57.365Z,35.06
2018-08-04T11:47:57.291Z,34.65
2018-08-04T11:48:57.309Z,34.84
2018-08-04T11:49:57.162Z,34.91
2018-08-04T11:50:57.067Z,34.99
2018-08-04T11:51:56.992Z,35.15
2018-08-04T11:52:56.918Z,35.42
2018-08-04T11:53:56.847Z,35.61
2018-08-04T11:54:56.793Z,35.73
2018-08-04T11:55:56.790Z,35.74
2018-08-04T11:56:56.626Z,35.24
2018-08-04T11:57:56.552Z,34.91
2018-08-04T11:58:56.476Z,34.67
2018-08-04T11:59:56.422Z,33.57
2018-08-04T12:00:56.328Z,32.99
2018-08-04T12:01:56.275Z,32.91
2018-08-04T12:02:56.276Z,32.14
2018-08-04T12:03:56.105Z,31.56
2018-08-04T12:04:56.055Z,31.05
2018-08-04T12:05:55.960Z,30.98
2018-08-04T12:06:55.884Z,30.96
2018-08-04T12:07:55.807Z,30.81
2018-08-04T12:08:55.737Z,30.76
2018-08-04T12:09:55.762Z,30.79
2018-08-04T12:10:55.583Z,30.75
2018-08-04T12:11:55.510Z,30.73
2018-08-04T12:12:55.430Z,30.51
2018-08-04T12:13:55.368Z,30.63
2018-08-04T12:14:55.304Z,30.60
2018-08-04T12:15:55.205Z,30.56
2018-08-04T12:16:55.224Z,30.44
2018-08-04T12:17:55.050Z,30.38
2018-08-04T12:18:54.979Z,30.37
2018-08-04T12:19:54.900Z,30.34
2018-08-04T12:20:54.839Z,30.46
2018-08-04T12:21:54.745Z,30.37
2018-08-04T12:22:54.671Z,30.36
2018-08-04T12:23:54.691Z,30.46
2018-08-04T12:24:54.516Z,30.48
2018-08-04T12:25:54.454Z,30.68
2018-08-04T12:26:54.358Z,31.03
2018-08-04T12:27:54.280Z,31.37
2018-08-04T12:28:54.202Z,31.65
2018-08-04T12:29:54.132Z,32.13
2018-08-04T12:30:54.168Z,32.80
2018-08-04T12:31:53.975Z,33.18
2018-08-04T12:32:53.894Z,33.35
2018-08-04T12:33:53.823Z,33.31
2018-08-04T12:34:53.738Z,33.22
2018-08-04T12:35:53.680Z,32.98
2018-08-04T12:36:53.583Z,33.45
2018-08-04T12:37:53.596Z,33.17
2018-08-04T12:38:53.428Z,33.37
2018-08-04T12:39:53.354Z,33.81
2018-08-04T12:40:53.297Z,33.90
2018-08-04T12:41:53.242Z,34.26
2018-08-04T12:42:53.123Z,33.77
2018-08-04T12:43:53.050Z,34.11
2018-08-04T12:44:53.062Z,34.01
2018-08-04T12:45:52.911Z,33.71
2018-08-04T12:46:52.815Z,34.33
2018-08-04T12:47:52.746Z,34.50
2018-08-04T12:48:52.671Z,34.76
2018-08-04T12:49:52.588Z,34.37
2018-08-04T12:50:52.535Z,33.84
2018-08-04T12:51:52.537Z,33.38